Fédération internationale de Ski
Member Section
Print

OFFICIAL RESULTS

Kope (SLO) 14.02.2013

National Championships - Men's Downhill

Race codex : 1193
Valid for FIS Points : YES
Jury
TD FIS AUERNIG PETER AUT
Referee B.BOZIC B.BOZIC SLO
Assistant Referee T.PLATOVSEK T.PLATOVSEK SLO
Chief of Race M.RATAJ M.RATAJ SLO
Technical Data
Start Altitude m.
Finish Altitude m.
Vertical Drop 0 m.
Course Length m.
Homologation Number 9819/003/09
Run 1
Course Setter
Number of Gates 27
Start Time
Run 2
Course Setter
Number of Gates
Turning Gates
Start Time
 
Show more info»

Competitors

Display filter form
Rank Bib FIS Code Name Year Nation Total Time Diff. FIS Points
 1  7  53968 BERTHOLD Frederic  1991  AUT   1:17.32     8.00
 2  10  481705 GLEBOV Alexander  1983  RUS   1:17.40  +0.08  9.42
 3  16  220695 CRAWFORD Douglas  1987  GBR   1:17.58  +0.26  12.61
 4  9  54005 STRIEDINGER Otmar  1991  AUT   1:17.64  +0.32  13.67
 5  11  561216 KLINE Bostjan  1991  SLO   1:17.81  +0.49  16.68
 6  33  561322 HADALIN Stefan  1995  SLO   1:18.16  +0.84  22.88
 7  25  561255 CATER Martin  1992  SLO   1:18.22  +0.90  23.95
 8  5  560447 SPORN Andrej  1981  SLO   1:18.30  +0.98  25.36
 9  8  53837 KRAMER Manuel  1989  AUT   1:18.32  +1.00  25.72
 10  6  53981 KROELL Johannes  1991  AUT   1:18.54  +1.22  29.62
 11  14  54117 HOERL Christopher  1989  AUT   1:18.76  +1.44  33.51
 12  12  220874 BALDWIN TJ  1990  GBR   1:18.94  +1.62  36.70
 13  34  561310 HROBAT Miha  1995  SLO   1:19.02  +1.70  38.12
 14  31  550022 RODE Roberts  1987  LAT   1:19.18  +1.86  40.96
 15  17  202323 LINDEBNER Anton  1991  GER   1:19.28  +1.96  42.73
 16  13  202291 AICHER Lukas  1991  GER   1:19.57  +2.25  47.87
 17  41  54209 KRENN Christoph  1994  AUT   1:19.70  +2.38  50.17
 18  46  6290639 DE CANDIDO Francesco  1993  ITA   1:19.80  +2.48  51.94
 19  29  92570 GEORGIEV Svetoslav  1991  BUL   1:19.82  +2.50  52.30
 20  32  6290278 DONEDDU Alessandro  1992  ITA   1:19.83  +2.51  52.47
 21  18  202424 FERSTL Christian  1992  GER   1:19.89  +2.57  53.54
 22  1  6290703 BATTOCCHI Matteo  1993  ITA   1:19.97  +2.65  54.95
 23  64  92638 VARBANOV Stoyan  1993  BUL   1:20.08  +2.76  56.90
 24  27  910003 LINDNER Georg  1983  MDA   1:20.10  +2.78  57.26
 25  20  380341 ULLRICH Max  1994  CRO   1:20.11  +2.79  57.43
 26  22  202469 RENZ Fabio  1992  GER   1:20.14  +2.82  57.97
 27  23  561197 OGORELC Blaz  1990  SLO   1:20.17  +2.85  58.50
 28  2  6290662 RABANSER Alexander  1993  ITA   1:20.19  +2.87  58.85
 29  15  202196 BRANDNER Klaus  1990  GER   1:20.25  +2.93  59.92
 30  48  561292 BLAZNIK Andraz  1994  SLO   1:20.33  +3.01  61.33
 31  30  561214 DEBELAK Tilen  1991  SLO   1:20.37  +3.05  62.04
 32  38  942023 TAHIRI Albin  1989  KOS   1:20.43  +3.11  63.10
 33  19  54302 KNAUSS Mario  1995  AUT   1:20.55  +3.23  65.23
 34  26  561279 KREJAC Klemen  1993  SLO   1:20.59  +3.27  65.94
 35  37  561278 REICH - POGLADIC Andraz  1993  SLO   1:20.69  +3.37  67.71
 35  4  54216 LINTSCHINGER Philipp  1994  AUT   1:20.69  +3.37  67.71
 37  3  561199 SOVIC Tomaz  1990  SLO   1:20.72  +3.40  68.24
 38  45  460071 ACHIRILOAIE Ioan Valeriu  1990  ROU   1:20.98  +3.66  72.85
 39  43  561311 STERLE Nik  1995  SLO   1:21.10  +3.78  74.98
 40  63  561332 RUPNIK Job  1996  SLO   1:21.21  +3.89  76.93
 41  69  430460 SZCZEPANIK Wojciech  1988  POL   1:21.27  +3.95  77.99
 42  53  561299 ROBIC Sergij  1994  SLO   1:21.57  +4.25  83.30
 43  36  6290980 PASINI Giovanni  1994  ITA   1:21.58  +4.26  83.48
 44  49  561294 VIDIC Luka  1994  SLO   1:21.75  +4.43  86.49
 45  58  561291 GROSELJ Zan  1993  SLO   1:21.89  +4.57  88.97
 46  54  400236 ROEL Patrick  1992  NED   1:22.12  +4.80  93.05
 47  52  561334 MLAKAR Maj  1996  SLO   1:22.36  +5.04  97.30
 47  39  180729 SVENSK Mikael  1994  FIN   1:22.36  +5.04  97.30
 49  55  700875 PAVELKA Matus  1993  SVK   1:22.48  +5.16  99.43
 50  24  54208 JAEGERSBERGER Jakob  1994  AUT   1:22.50  +5.18  99.78
 51  28  54323 UNTERWIESER Roman  1995  AUT   1:22.52  +5.20  100.14
 52  50  303679 ICHINOMOTO Tomoki  1991  JPN   1:22.67  +5.35  102.79
 53  44  561304 CAS Jure  1994  SLO   1:22.85  +5.53  105.98
 54  51  150999 VAVRINEC Jan  1983  CZE   1:22.92  +5.60  107.22
 55  56  561333 LIHTENEGER VIDMAJER Jon  1996  SLO   1:23.06  +5.74  109.70
 56  47  380361 RODES Istok  1996  CRO   1:23.10  +5.78  110.41
 57  35  180721 PLANTING Conrad  1994  FIN   1:23.20  +5.88  112.19
 58  40  150852 WALIGORA Michael  1990  CZE   1:23.43  +6.11  116.26
 59  66  400259 MOLENAAR Dean  1994  NED   1:23.47  +6.15  116.97
 60  68  700915 BROZMAN Branislav  1996  SVK   1:24.10  +6.78  128.13
 61  57  561315 GOLOB Janez  1995  SLO   1:24.17  +6.85  129.37
 62  60  700923 PETRIK Tomas  1996  SVK   1:24.33  +7.01  132.21
 63  65  561329 SENCAR Dusan  1996  SLO   1:24.38  +7.06  133.09
 64  62  561353 HOMAN Zan  1996  SLO   1:25.38  +8.06  150.81
 65  59  561316 RUPNIK Domen  1995  SLO   1:26.92  +9.60  178.10
 66  67  561338 LIPNIK Domen  1996  SLO   1:28.52  +11.20  206.45
Did not finish 1st run
   21  670052 KHUBER Martin  1992  KAZ       
Did not start 1st run
   61  561318 JURKOVNIK Urban  1994  SLO       
   42  561314 KUNC Jan  1995  SLO